Time;durP1;ratioP1;P1;durP2;ratioP2;P2;SDS_P1;SDS_P2;PMS_P1;PMS_P2;Temp;Humidity;BMP_temperature;BMP_pressure;BME280_temperature;BME280_humidity;BME280_pressure;Samples;Min_cycle;Max_cycle;Signal;HPM_P1;HPM_P2
2021/10/11 00:02:23;;;;;;;18.60;14.43;;;6.90;99.90;;;;;;5013221;28;20171;-63
2021/10/11 00:04:48;;;;;;;19.63;14.50;;;6.90;99.90;;;;;;5013114;28;20661;-63
2021/10/11 00:07:14;;;;;;;20.33;16.10;;;6.90;99.90;;;;;;5013194;28;20175;-63
2021/10/11 00:09:40;;;;;;;20.43;15.83;;;6.90;99.90;;;;;;5012563;28;20214;-63
2021/10/11 00:12:05;;;;;;;20.03;15.90;;;6.80;99.90;;;;;;5013048;28;20258;-63
2021/10/11 00:14:31;;;;;;;21.23;16.07;;;6.70;99.90;;;;;;5013016;28;20231;-64
2021/10/11 00:16:57;;;;;;;19.90;15.03;;;6.70;99.90;;;;;;5012881;28;20580;-62
2021/10/11 00:19:22;;;;;;;18.90;15.10;;;6.70;99.90;;;;;;5012528;28;20192;-63
2021/10/11 00:21:48;;;;;;;18.47;15.93;;;6.70;99.90;;;;;;5012547;28;20182;-64
2021/10/11 00:24:14;;;;;;;21.90;15.30;;;6.70;99.90;;;;;;5012635;28;20176;-63
2021/10/11 00:26:39;;;;;;;21.87;15.53;;;6.60;99.90;;;;;;5012395;28;20282;-63
2021/10/11 00:29:05;;;;;;;19.00;16.00;;;6.60;99.90;;;;;;5012190;28;20254;-63
2021/10/11 00:31:31;;;;;;;21.03;14.60;;;6.60;99.90;;;;;;5012723;28;20176;-62
2021/10/11 00:33:56;;;;;;;20.23;16.40;;;6.50;99.90;;;;;;5012709;28;20257;-63
2021/10/11 00:36:23;;;;;;;16.93;13.93;;;6.40;99.90;;;;;;5012583;28;20574;-63
2021/10/11 00:38:49;;;;;;;20.27;16.17;;;6.50;99.90;;;;;;5011954;28;20182;-63
2021/10/11 00:41:15;;;;;;;18.47;14.80;;;6.50;99.90;;;;;;5012609;28;20483;-63
2021/10/11 00:43:41;;;;;;;17.67;15.07;;;6.40;99.90;;;;;;5012525;28;20172;-62
2021/10/11 00:46:07;;;;;;;20.63;14.90;;;6.40;99.90;;;;;;5012573;28;20412;-63
2021/10/11 00:48:37;;;;;;;18.90;15.43;;;6.40;99.90;;;;;;5012430;28;20413;-63
2021/10/11 00:51:05;;;;;;;20.87;16.70;;;6.40;99.90;;;;;;5012399;28;20424;-63
2021/10/11 00:53:32;;;;;;;23.83;16.50;;;6.40;99.90;;;;;;5012300;28;20418;-63
2021/10/11 00:55:57;;;;;;;19.20;15.10;;;6.50;99.90;;;;;;5012268;28;20455;-63
2021/10/11 00:58:23;;;;;;;20.70;15.50;;;6.50;99.90;;;;;;5012091;28;20455;-63
2021/10/11 01:00:48;;;;;;;18.53;15.07;;;6.50;99.90;;;;;;5012092;28;20554;-62
2021/10/11 01:03:14;;;;;;;24.00;17.70;;;6.50;99.90;;;;;;5012231;28;20170;-61
2021/10/11 01:05:40;;;;;;;20.60;15.50;;;6.50;99.90;;;;;;5012253;28;20171;-62
2021/10/11 01:08:05;;;;;;;17.60;15.63;;;6.50;99.90;;;;;;5011841;28;20181;-62
2021/10/11 01:10:31;;;;;;;24.67;16.40;;;6.60;99.90;;;;;;5012079;28;20225;-63
2021/10/11 01:12:56;;;;;;;19.23;15.00;;;6.60;99.90;;;;;;5012205;28;20224;-62
2021/10/11 01:15:22;;;;;;;20.23;17.30;;;6.70;99.90;;;;;;5012007;28;20632;-63
2021/10/11 01:17:48;;;;;;;23.77;18.00;;;6.70;99.90;;;;;;5012075;28;20183;-62
2021/10/11 01:20:13;;;;;;;21.63;15.70;;;6.80;99.90;;;;;;5011543;28;20439;-63
2021/10/11 01:22:42;;;;;;;19.53;17.53;;;6.80;99.90;;;;;;5012070;28;20184;-62
2021/10/11 01:25:14;;;;;;;20.73;16.03;;;6.80;99.90;;;;;;5011984;28;20206;-63
2021/10/11 01:27:41;;;;;;;22.90;16.13;;;6.90;99.90;;;;;;5012084;28;20799;-63
2021/10/11 01:30:09;;;;;;;19.37;16.13;;;6.90;99.90;;;;;;5011619;28;20429;-61
2021/10/11 01:32:35;;;;;;;20.97;16.50;;;7.00;99.90;;;;;;5011950;28;20418;-63
2021/10/11 01:35:01;;;;;;;19.93;16.10;;;7.00;99.90;;;;;;5011820;28;20405;-62
2021/10/11 01:37:26;;;;;;;24.00;17.33;;;7.00;99.90;;;;;;5011880;28;20463;-63
2021/10/11 01:39:52;;;;;;;21.20;17.93;;;7.10;99.90;;;;;;5014686;28;20494;-63
2021/10/11 01:42:18;;;;;;;23.83;18.23;;;7.10;99.90;;;;;;5015854;28;20773;-63
2021/10/11 01:44:43;;;;;;;24.20;19.23;;;7.20;99.90;;;;;;5015812;28;20614;-62
2021/10/11 01:47:09;;;;;;;22.37;18.17;;;7.30;99.90;;;;;;5015756;28;20267;-63
2021/10/11 01:49:35;;;;;;;23.23;20.13;;;7.30;99.90;;;;;;5015215;28;20222;-63
2021/10/11 01:52:00;;;;;;;27.73;21.10;;;7.40;99.90;;;;;;5015735;28;20632;-63
2021/10/11 01:54:26;;;;;;;32.23;21.17;;;7.40;99.90;;;;;;5015689;28;20176;-63
2021/10/11 01:56:51;;;;;;;26.73;20.20;;;7.40;99.90;;;;;;5015425;28;20203;-63
2021/10/11 01:59:17;;;;;;;28.90;21.87;;;7.40;99.90;;;;;;5015097;28;20199;-63
2021/10/11 02:01:43;;;;;;;27.97;19.57;;;7.50;99.90;;;;;;5015503;28;20167;-63
2021/10/11 02:04:08;;;;;;;31.70;23.50;;;7.50;99.90;;;;;;5015422;28;20172;-63
2021/10/11 02:06:34;;;;;;;34.20;25.47;;;7.50;99.90;;;;;;5015439;28;20514;-64
2021/10/11 02:08:59;;;;;;;32.47;25.33;;;7.60;99.90;;;;;;5014929;28;20564;-63
2021/10/11 02:11:25;;;;;;;37.70;26.17;;;7.70;99.90;;;;;;5015460;28;20249;-63
2021/10/11 02:13:51;;;;;;;32.97;25.27;;;7.70;99.90;;;;;;5015258;28;20171;-62
2021/10/11 02:16:16;;;;;;;31.10;22.97;;;7.80;99.90;;;;;;5015096;28;20204;-63
2021/10/11 02:18:42;;;;;;;37.77;27.00;;;7.80;99.90;;;;;;5014657;28;20215;-63
2021/10/11 02:21:07;;;;;;;39.17;26.40;;;7.90;99.90;;;;;;5015173;28;20199;-63
2021/10/11 02:23:33;;;;;;;38.57;24.93;;;7.90;99.90;;;;;;5015110;28;20180;-63
2021/10/11 02:25:58;;;;;;;34.97;25.87;;;7.90;99.90;;;;;;5015143;28;20177;-63
2021/10/11 02:28:24;;;;;;;34.60;22.10;;;8.00;99.90;;;;;;5014748;28;20213;-63
2021/10/11 02:30:50;;;;;;;30.57;21.57;;;8.00;99.90;;;;;;5014776;28;20204;-63
2021/10/11 02:33:15;;;;;;;36.40;25.07;;;8.10;99.90;;;;;;5015241;28;20236;-62
2021/10/11 02:35:41;;;;;;;37.60;24.13;;;8.10;99.90;;;;;;5014973;28;20204;-63
2021/10/11 02:38:06;;;;;;;37.40;26.70;;;8.20;99.90;;;;;;5014521;28;20172;-63
2021/10/11 02:40:33;;;;;;;39.33;25.70;;;8.20;99.90;;;;;;5014625;28;20219;-63
2021/10/11 02:42:58;;;;;;;36.07;23.80;;;8.20;99.90;;;;;;5014742;28;20181;-63
2021/10/11 02:45:24;;;;;;;35.40;26.20;;;8.30;99.90;;;;;;5014683;28;20412;-63
2021/10/11 02:47:49;;;;;;;48.10;32.33;;;8.30;99.90;;;;;;5014527;28;20174;-63
2021/10/11 02:50:15;;;;;;;51.73;32.37;;;8.30;99.90;;;;;;5013470;28;20206;-63
2021/10/11 02:52:41;;;;;;;42.87;30.60;;;8.40;99.90;;;;;;5014597;28;20205;-62
2021/10/11 02:55:06;;;;;;;50.53;31.57;;;8.40;99.90;;;;;;5014477;28;20173;-63
2021/10/11 02:57:32;;;;;;;58.53;32.23;;;8.40;99.90;;;;;;5014565;28;20682;-63
2021/10/11 02:59:58;;;;;;;51.50;33.60;;;8.50;99.90;;;;;;5013978;28;20548;-63
2021/10/11 03:02:23;;;;;;;59.03;33.83;;;8.50;99.90;;;;;;5014394;28;20165;-64
2021/10/11 03:04:50;;;;;;;55.97;36.03;;;8.60;99.90;;;;;;5014267;28;20165;-62
2021/10/11 03:07:17;;;;;;;54.73;32.60;;;8.70;99.90;;;;;;5014592;28;20181;-63
2021/10/11 03:09:43;;;;;;;49.00;30.70;;;8.70;99.90;;;;;;5013783;28;20475;-63
2021/10/11 03:12:08;;;;;;;53.90;30.20;;;8.70;99.90;;;;;;5014035;28;20427;-63
2021/10/11 03:14:34;;;;;;;54.50;32.43;;;8.80;99.90;;;;;;5014093;28;20416;-63
2021/10/11 03:17:00;;;;;;;52.80;33.80;;;8.80;99.90;;;;;;5013961;28;20193;-63
2021/10/11 03:19:25;;;;;;;51.83;35.27;;;8.80;99.90;;;;;;5013592;28;20259;-63
2021/10/11 03:21:51;;;;;;;49.80;31.80;;;8.90;99.90;;;;;;5014200;28;20173;-64
2021/10/11 03:24:16;;;;;;;49.30;32.93;;;8.90;99.90;;;;;;5013966;28;20830;-63
2021/10/11 03:26:42;;;;;;;54.33;34.57;;;8.90;99.90;;;;;;5013894;28;20174;-64
2021/10/11 03:29:07;;;;;;;48.93;31.73;;;8.90;99.90;;;;;;5013374;28;20204;-64
2021/10/11 03:31:33;;;;;;;48.10;28.30;;;9.00;99.90;;;;;;5014010;28;20177;-64
2021/10/11 03:33:58;;;;;;;49.83;31.70;;;9.00;99.90;;;;;;5013960;28;20181;-63
2021/10/11 03:36:24;;;;;;;41.53;24.83;;;9.00;99.90;;;;;;5013699;28;20772;-64
2021/10/11 03:38:50;;;;;;;39.00;24.47;;;9.10;99.90;;;;;;5013106;28;20642;-63
2021/10/11 03:41:15;;;;;;;29.37;21.30;;;9.20;99.90;;;;;;5013634;28;20260;-63
2021/10/11 03:43:41;;;;;;;31.57;19.97;;;9.20;99.90;;;;;;5013601;28;20200;-64
2021/10/11 03:46:06;;;;;;;33.27;20.93;;;9.30;99.90;;;;;;5013561;28;20180;-63
2021/10/11 03:48:32;;;;;;;36.53;23.13;;;9.30;99.90;;;;;;5013215;28;20215;-64
2021/10/11 03:50:58;;;;;;;33.83;20.83;;;9.30;99.90;;;;;;5013237;28;20646;-63
2021/10/11 03:53:23;;;;;;;29.83;21.57;;;9.40;99.90;;;;;;5013566;28;20463;-63
2021/10/11 03:55:49;;;;;;;34.37;20.47;;;9.40;99.90;;;;;;5013338;28;20189;-63
2021/10/11 03:58:15;;;;;;;35.53;21.70;;;9.40;99.90;;;;;;5013045;28;20169;-64
2021/10/11 04:00:40;;;;;;;35.83;21.47;;;9.40;99.90;;;;;;5013130;28;20193;-64
2021/10/11 04:03:08;;;;;;;34.50;21.17;;;9.50;99.90;;;;;;5012179;28;20622;-63
2021/10/11 04:05:33;;;;;;;37.53;24.57;;;9.50;99.90;;;;;;5013208;28;20173;-63
2021/10/11 04:08:11;;;;;;;35.53;24.97;;;9.50;99.90;;;;;;5012855;28;20793;-63
2021/10/11 04:10:45;;;;;;;53.67;33.83;;;9.60;99.90;;;;;;5013046;28;20220;-63
2021/10/11 04:13:11;;;;;;;60.33;33.70;;;9.60;99.90;;;;;;5012942;28;20896;-63
2021/10/11 04:15:36;;;;;;;43.83;28.77;;;9.60;99.90;;;;;;5013367;28;20466;-60
2021/10/11 04:18:02;;;;;;;52.50;30.10;;;9.70;99.90;;;;;;5012675;28;20227;-65
2021/10/11 04:20:27;;;;;;;58.53;34.30;;;9.70;99.90;;;;;;5012776;28;20189;-60
2021/10/11 04:22:53;;;;;;;44.23;29.10;;;9.70;99.90;;;;;;5012947;28;20257;-59
2021/10/11 04:25:19;;;;;;;55.20;35.87;;;9.70;99.90;;;;;;5012834;28;20644;-63
2021/10/11 04:27:45;;;;;;;45.80;30.67;;;9.80;99.90;;;;;;5012728;28;20584;-64
2021/10/11 04:30:10;;;;;;;62.70;40.90;;;9.80;99.90;;;;;;5012335;28;20189;-63
2021/10/11 04:32:36;;;;;;;50.23;34.67;;;9.80;99.90;;;;;;5012718;28;20474;-59
2021/10/11 04:35:02;;;;;;;47.30;32.83;;;9.80;99.90;;;;;;5012743;28;20173;-61
2021/10/11 04:37:27;;;;;;;48.67;34.90;;;9.80;99.90;;;;;;5012571;28;20204;-59
2021/10/11 04:39:53;;;;;;;44.20;31.27;;;9.90;99.90;;;;;;5012036;28;20205;-64
2021/10/11 04:42:19;;;;;;;44.83;30.13;;;9.90;99.90;;;;;;5012529;28;20515;-64
2021/10/11 04:44:45;;;;;;;38.53;24.30;;;9.90;99.90;;;;;;5012547;28;20410;-64
2021/10/11 04:47:11;;;;;;;30.87;22.67;;;9.90;99.90;;;;;;5012453;28;20764;-60
2021/10/11 04:49:36;;;;;;;42.37;23.77;;;9.90;99.90;;;;;;5012036;28;20208;-61
2021/10/11 04:52:02;;;;;;;33.63;20.60;;;10.00;99.90;;;;;;5012415;28;20169;-60
2021/10/11 04:54:27;;;;;;;32.30;22.87;;;10.00;99.90;;;;;;5012418;28;20183;-63
2021/10/11 04:56:53;;;;;;;42.23;30.67;;;10.00;99.90;;;;;;5012325;28;20190;-63
2021/10/11 04:59:19;;;;;;;39.87;27.37;;;10.00;99.90;;;;;;5011844;28;20642;-61
2021/10/11 05:01:44;;;;;;;37.30;25.27;;;10.10;99.90;;;;;;5012493;28;20409;-61
2021/10/11 05:04:10;;;;;;;29.80;20.60;;;10.10;99.90;;;;;;5012259;28;20196;-63
2021/10/11 05:06:36;;;;;;;26.90;19.10;;;10.10;99.90;;;;;;5012228;28;20200;-63
2021/10/11 05:09:02;;;;;;;40.30;24.80;;;10.10;99.90;;;;;;5011722;28;20440;-64
2021/10/11 05:11:29;;;;;;;40.67;23.47;;;10.10;99.90;;;;;;5012120;28;20555;-65
2021/10/11 05:13:56;;;;;;;32.80;20.27;;;10.10;99.90;;;;;;5011829;28;20503;-60
2021/10/11 05:16:22;;;;;;;36.43;24.47;;;10.10;99.90;;;;;;5012122;28;20461;-60
2021/10/11 05:18:48;;;;;;;23.17;16.90;;;10.20;99.90;;;;;;5011647;28;20439;-65
2021/10/11 05:21:15;;;;;;;28.73;18.93;;;10.10;99.90;;;;;;5012075;28;20798;-60
2021/10/11 05:23:40;;;;;;;29.10;19.03;;;10.20;99.90;;;;;;5012268;28;20844;-63
2021/10/11 05:26:06;;;;;;;25.90;18.47;;;10.20;99.90;;;;;;5011988;28;20491;-63
2021/10/11 05:28:32;;;;;;;21.37;16.23;;;10.20;99.90;;;;;;5011635;28;20169;-61
2021/10/11 05:30:57;;;;;;;21.50;16.13;;;10.20;99.90;;;;;;5011849;28;20683;-62
2021/10/11 05:33:23;;;;;;;24.70;14.53;;;10.20;99.90;;;;;;5011992;28;20184;-63
2021/10/11 05:35:50;;;;;;;23.07;17.47;;;10.20;99.90;;;;;;5011993;28;20259;-60
2021/10/11 05:38:16;;;;;;;51.87;26.93;;;10.30;99.90;;;;;;5010675;28;20543;-61
2021/10/11 05:40:41;;;;;;;26.10;18.40;;;10.20;99.90;;;;;;5011069;28;20452;-64
2021/10/11 05:43:07;;;;;;;28.70;17.50;;;10.30;99.90;;;;;;5011071;28;20176;-63
2021/10/11 05:45:33;;;;;;;50.20;27.93;;;10.30;99.90;;;;;;5011841;28;20180;-61
2021/10/11 05:47:59;;;;;;;39.37;20.47;;;10.30;99.90;;;;;;4993960;28;20184;-60
2021/10/11 05:50:25;;;;;;;68.60;39.67;;;10.30;99.90;;;;;;5011588;28;20432;-62
2021/10/11 05:52:50;;;;;;;91.57;49.90;;;10.40;99.90;;;;;;5011768;28;20226;-60
2021/10/11 05:55:16;;;;;;;45.23;27.73;;;10.30;99.90;;;;;;5011586;28;20185;-63
2021/10/11 05:57:42;;;;;;;44.27;28.97;;;10.30;99.90;;;;;;5011701;28;20177;-61
2021/10/11 06:00:08;;;;;;;32.77;23.70;;;10.30;99.90;;;;;;5011291;28;20197;-62
2021/10/11 06:02:34;;;;;;;24.00;17.40;;;10.30;99.90;;;;;;5011602;28;20416;-63
2021/10/11 06:05:01;;;;;;;27.83;19.60;;;10.40;99.90;;;;;;5011644;28;20452;-62
2021/10/11 06:07:28;;;;;;;27.43;17.90;;;10.30;99.90;;;;;;5011679;28;20537;-59
2021/10/11 06:09:55;;;;;;;22.37;14.90;;;10.40;99.90;;;;;;5011107;28;20543;-62
2021/10/11 06:12:20;;;;;;;25.23;16.23;;;10.30;99.90;;;;;;5011617;28;20450;-62
2021/10/11 06:14:46;;;;;;;27.07;20.70;;;10.30;99.90;;;;;;5011608;28;20412;-62
2021/10/11 06:17:12;;;;;;;24.33;19.27;;;10.40;99.90;;;;;;5011480;28;20209;-61
2021/10/11 06:19:37;;;;;;;25.23;16.13;;;10.40;99.90;;;;;;5011027;28;20194;-61
2021/10/11 06:22:03;;;;;;;18.87;14.90;;;10.40;99.90;;;;;;5011505;28;20529;-64
2021/10/11 06:24:29;;;;;;;21.40;16.70;;;10.40;99.90;;;;;;5011365;28;20224;-63
2021/10/11 06:26:55;;;;;;;23.13;15.93;;;10.40;99.90;;;;;;5014609;28;20928;-61
2021/10/11 06:29:21;;;;;;;20.30;14.50;;;10.40;99.90;;;;;;5014594;28;20677;-63
2021/10/11 06:31:47;;;;;;;19.43;12.30;;;10.50;99.90;;;;;;5015288;28;20408;-61
2021/10/11 06:34:12;;;;;;;19.00;14.57;;;10.40;99.90;;;;;;5014987;28;20182;-61
2021/10/11 06:36:38;;;;;;;16.73;13.47;;;10.40;99.90;;;;;;5014897;28;20540;-60
2021/10/11 06:39:04;;;;;;;13.30;10.50;;;10.40;99.90;;;;;;5014057;28;20685;-61
2021/10/11 06:41:32;;;;;;;15.03;11.73;;;10.40;99.90;;;;;;5014791;28;20168;-65
2021/10/11 06:43:58;;;;;;;17.77;13.90;;;10.50;99.90;;;;;;5014714;28;20449;-66
2021/10/11 06:46:23;;;;;;;17.43;10.67;;;10.50;99.90;;;;;;5014670;28;20423;-64
2021/10/11 06:48:50;;;;;;;19.00;11.83;;;10.50;99.90;;;;;;5014236;28;20180;-64
2021/10/11 06:51:15;;;;;;;14.33;10.27;;;10.50;99.90;;;;;;5014607;28;20869;-64
2021/10/11 06:53:41;;;;;;;19.50;13.10;;;10.50;99.90;;;;;;5014457;28;20412;-64
2021/10/11 06:56:06;;;;;;;22.40;12.40;;;10.50;99.90;;;;;;5014422;28;20240;-64
2021/10/11 06:58:32;;;;;;;25.70;14.10;;;10.60;99.90;;;;;;5014145;28;20607;-64
2021/10/11 07:00:58;;;;;;;17.73;12.23;;;10.60;99.90;;;;;;5014224;28;20267;-63
2021/10/11 07:03:24;;;;;;;20.43;14.80;;;10.60;99.90;;;;;;5014370;28;20171;-63
2021/10/11 07:06:02;;;;;;;15.83;12.70;;;10.50;99.90;;;;;;5014337;28;20280;-62
2021/10/11 07:08:27;;;;;;;14.53;10.80;;;10.50;99.90;;;;;;5014001;28;20893;-64
2021/10/11 07:10:54;;;;;;;15.93;11.73;;;10.60;99.90;;;;;;5014133;28;20439;-65
2021/10/11 07:13:21;;;;;;;15.77;12.23;;;10.70;99.90;;;;;;5014252;28;20167;-64
2021/10/11 07:15:46;;;;;;;20.03;10.37;;;10.60;99.90;;;;;;5014029;28;20531;-63
2021/10/11 07:18:12;;;;;;;18.50;13.13;;;10.60;99.90;;;;;;5013877;28;21129;-64
2021/10/11 07:20:42;;;;;;;17.30;10.77;;;10.70;99.90;;;;;;5014060;28;20185;-64
2021/10/11 07:23:09;;;;;;;15.80;14.00;;;10.80;99.90;;;;;;5013990;28;20150;-63
2021/10/11 07:25:35;;;;;;;16.50;11.20;;;10.80;99.90;;;;;;5013964;28;20458;-64
2021/10/11 07:28:00;;;;;;;19.43;11.97;;;10.90;99.90;;;;;;5013665;28;20415;-63
2021/10/11 07:30:26;;;;;;;17.83;13.67;;;10.90;99.90;;;;;;5013803;28;20188;-63
2021/10/11 07:32:51;;;;;;;15.60;11.27;;;10.90;99.90;;;;;;5013819;28;20173;-64
2021/10/11 07:35:17;;;;;;;15.97;12.07;;;11.00;99.90;;;;;;5013557;28;20181;-63
2021/10/11 07:37:43;;;;;;;16.83;10.47;;;11.00;99.90;;;;;;5013547;28;20751;-64
2021/10/11 07:40:09;;;;;;;16.30;9.87;;;11.10;99.90;;;;;;5013231;28;20245;-63
2021/10/11 07:42:34;;;;;;;13.67;9.00;;;11.10;99.90;;;;;;5013675;28;20161;-64
2021/10/11 07:45:02;;;;;;;12.30;8.90;;;11.20;99.90;;;;;;5013606;28;20400;-64
2021/10/11 07:47:28;;;;;;;11.47;10.27;;;11.20;99.90;;;;;;5013542;28;20165;-64
2021/10/11 07:49:53;;;;;;;14.97;11.07;;;11.40;99.90;;;;;;5013077;28;20437;-64
2021/10/11 07:52:19;;;;;;;11.07;7.30;;;11.40;99.90;;;;;;5013415;28;20256;-64
2021/10/11 07:54:44;;;;;;;9.63;8.50;;;11.50;99.90;;;;;;5013364;28;20224;-63
2021/10/11 07:57:10;;;;;;;9.07;6.77;;;11.50;99.90;;;;;;5013318;28;20207;-66
2021/10/11 07:59:36;;;;;;;9.00;6.80;;;11.50;99.90;;;;;;5012944;28;20284;-63
2021/10/11 08:02:01;;;;;;;10.60;6.80;;;11.50;99.90;;;;;;5013338;28;20169;-63
2021/10/11 08:04:27;;;;;;;10.97;7.67;;;11.60;99.90;;;;;;4995594;28;20184;-61
2021/10/11 08:06:52;;;;;;;10.13;6.67;;;11.60;99.90;;;;;;5013151;28;20180;-64
2021/10/11 08:09:18;;;;;;;6.73;4.93;;;11.70;99.90;;;;;;5012765;28;20185;-61
2021/10/11 08:11:44;;;;;;;9.73;6.77;;;11.80;99.90;;;;;;5013131;28;20172;-63
2021/10/11 08:14:10;;;;;;;7.93;5.70;;;11.90;99.90;;;;;;5013107;28;20656;-61
2021/10/11 08:16:38;;;;;;;11.10;5.77;;;12.00;99.90;;;;;;5012967;28;20440;-64
2021/10/11 08:19:03;;;;;;;9.50;6.27;;;12.20;99.90;;;;;;5022554;23;20206;-65
2021/10/11 08:21:29;;;;;;;8.00;5.13;;;12.40;99.90;;;;;;5032710;28;20419;-65
2021/10/11 08:23:56;;;;;;;8.13;6.13;;;12.50;99.90;;;;;;5032712;28;20723;-61
2021/10/11 08:26:22;;;;;;;10.10;5.00;;;12.70;99.90;;;;;;5032603;28;20165;-64
2021/10/11 08:28:48;;;;;;;8.47;4.50;;;12.90;99.90;;;;;;5032123;28;20398;-60
2021/10/11 08:31:13;;;;;;;6.10;5.03;;;13.00;99.90;;;;;;5032565;28;20176;-64
2021/10/11 08:33:40;;;;;;;17.67;5.23;;;13.20;99.90;;;;;;5032455;28;20445;-66
2021/10/11 08:36:05;;;;;;;7.00;4.70;;;13.30;99.90;;;;;;5032367;28;20185;-67
2021/10/11 08:38:32;;;;;;;8.10;5.07;;;13.30;99.90;;;;;;5032120;28;20688;-65
2021/10/11 08:40:57;;;;;;;6.57;4.27;;;13.50;99.90;;;;;;5032235;28;20184;-64
2021/10/11 08:43:23;;;;;;;7.87;4.70;;;13.60;99.90;;;;;;5032344;28;20403;-65
2021/10/11 08:45:51;;;;;;;14.80;6.00;;;13.50;99.90;;;;;;5032340;28;20164;-64
2021/10/11 08:48:17;;;;;;;7.93;5.83;;;13.50;99.90;;;;;;5031446;28;20439;-65
2021/10/11 08:50:42;;;;;;;5.47;4.97;;;13.60;99.90;;;;;;5031919;28;20428;-66
2021/10/11 08:53:11;;;;;;;11.30;4.70;;;14.00;99.90;;;;;;5032330;28;20785;-65
2021/10/11 08:55:37;;;;;;;9.00;4.40;;;14.20;99.90;;;;;;5032122;28;20215;-65
2021/10/11 08:58:07;;;;;;;6.20;4.30;;;14.30;99.90;;;;;;5031751;28;20407;-64
2021/10/11 09:00:34;;;;;;;6.63;4.03;;;14.50;99.90;;;;;;5031780;28;20470;-65
2021/10/11 09:03:01;;;;;;;6.83;5.53;;;14.50;99.90;;;;;;5031970;28;20415;-64
2021/10/11 09:05:32;;;;;;;7.47;4.60;;;14.40;99.40;;;;;;5031979;28;20415;-64
2021/10/11 09:08:29;;;;;;;9.57;4.93;;;14.50;99.90;;;;;;5031658;28;20435;-67
2021/10/11 09:11:03;;;;;;;9.60;4.60;;;14.70;99.90;;;;;;5030989;28;20432;-65
2021/10/11 09:13:33;;;;;;;12.50;5.20;;;14.60;99.90;;;;;;5031966;28;20892;-64
2021/10/11 09:16:10;;;;;;;5.50;3.87;;;14.60;99.90;;;;;;5031934;28;20975;-64
2021/10/11 09:18:38;;;;;;;5.13;3.13;;;14.60;99.60;;;;;;5031570;28;20428;-65
2021/10/11 09:21:04;;;;;;;7.27;3.23;;;14.40;99.20;;;;;;5031776;28;20919;-65
2021/10/11 09:23:30;;;;;;;2.90;2.70;;;14.40;99.70;;;;;;5031790;28;20499;-65
2021/10/11 09:25:58;;;;;;;6.20;3.47;;;14.40;99.70;;;;;;5031794;28;20296;-63
2021/10/11 09:28:25;;;;;;;5.60;3.47;;;14.40;99.90;;;;;;5031452;28;20984;-62
2021/10/11 09:30:51;;;;;;;14.13;4.33;;;14.50;99.90;;;;;;5031695;28;20419;-64
2021/10/11 09:33:23;;;;;;;5.67;3.40;;;14.60;99.90;;;;;;5031728;28;20399;-64
2021/10/11 09:35:53;;;;;;;6.20;3.10;;;14.60;99.80;;;;;;5031709;28;20435;-64
2021/10/11 09:38:27;;;;;;;7.50;2.97;;;14.50;99.90;;;;;;5031332;28;20395;-64
2021/10/11 09:40:59;;;;;;;4.30;3.03;;;14.50;99.90;;;;;;5056406;22;20489;-63
2021/10/11 09:43:27;;;;;;;6.47;4.80;;;14.50;99.60;;;;;;5031692;28;20383;-64
2021/10/11 09:45:54;;;;;;;4.40;3.60;;;14.40;99.30;;;;;;5031590;28;20406;-64
2021/10/11 09:48:20;;;;;;;5.97;4.50;;;14.40;99.50;;;;;;5031318;28;20754;-64
2021/10/11 09:50:46;;;;;;;4.83;2.70;;;14.30;99.20;;;;;;5031289;28;20420;-64
2021/10/11 09:53:14;;;;;;;7.63;4.20;;;14.30;99.50;;;;;;5031540;28;20395;-64
2021/10/11 09:55:41;;;;;;;15.60;8.63;;;14.20;99.90;;;;;;5031455;28;20451;-64
2021/10/11 09:58:11;;;;;;;11.20;7.87;;;14.20;99.90;;;;;;5031272;28;20479;-63
2021/10/11 10:00:38;;;;;;;66.40;44.43;;;14.20;99.90;;;;;;5032625;28;20423;-63
2021/10/11 10:03:04;;;;;;;16.33;14.03;;;14.20;99.90;;;;;;5035324;28;20891;-61
2021/10/11 10:05:33;;;;;;;9.33;6.67;;;14.30;99.90;;;;;;5035166;28;20403;-63
2021/10/11 10:08:06;;;;;;;6.20;3.90;;;14.20;99.90;;;;;;5034990;28;20402;-67
2021/10/11 10:10:33;;;;;;;4.60;4.20;;;14.30;99.70;;;;;;5035137;28;20889;-63
2021/10/11 10:12:59;;;;;;;6.00;5.03;;;14.20;99.70;;;;;;5035177;28;20408;-62
2021/10/11 10:15:33;;;;;;;4.80;3.30;;;14.10;98.30;;;;;;5035619;28;20950;-63
2021/10/11 10:18:10;;;;;;;4.50;3.80;;;14.10;99.00;;;;;;5034754;28;20399;-60
2021/10/11 10:20:48;;;;;;;6.10;3.20;;;14.20;99.20;;;;;;5034872;28;20509;-66
2021/10/11 10:23:41;;;;;;;5.10;2.80;;;14.30;98.60;;;;;;5035024;28;20399;-63
2021/10/11 10:26:10;;;;;;;4.93;2.93;;;14.40;99.60;;;;;;5034879;28;20411;-64
2021/10/11 10:28:51;;;;;;;4.50;2.83;;;14.50;97.50;;;;;;5034505;28;20490;-67
2021/10/11 10:31:28;;;;;;;4.70;3.03;;;14.60;98.40;;;;;;5034806;28;20770;-64
2021/10/11 10:33:54;;;;;;;4.60;4.17;;;14.70;98.80;;;;;;5034739;28;20493;-66
2021/10/11 10:36:25;;;;;;;11.03;3.33;;;14.60;99.00;;;;;;5034612;28;20938;-65
2021/10/11 10:39:09;;;;;;;13.70;3.40;;;14.50;99.50;;;;;;5034033;28;20886;-63
2021/10/11 10:41:37;;;;;;;4.53;3.27;;;14.40;98.80;;;;;;5034626;28;20411;-63
2021/10/11 10:44:29;;;;;;;10.37;2.87;;;14.30;99.30;;;;;;5034641;28;20411;-66
2021/10/11 10:47:02;;;;;;;5.07;4.73;;;14.20;99.10;;;;;;5034075;28;20427;-63
2021/10/11 10:49:34;;;;;;;5.53;3.77;;;14.20;99.80;;;;;;5034242;28;20437;-64
2021/10/11 10:52:13;;;;;;;3.60;2.83;;;14.20;99.10;;;;;;5034291;28;20561;-64
2021/10/11 10:54:49;;;;;;;6.03;2.97;;;14.10;99.30;;;;;;5034476;28;20434;-63
2021/10/11 10:57:21;;;;;;;3.57;2.60;;;14.10;99.70;;;;;;5034238;28;20826;-66
2021/10/11 10:59:52;;;;;;;4.20;3.00;;;14.00;99.30;;;;;;5033884;28;20739;-65
2021/10/11 11:02:17;;;;;;;7.97;3.10;;;13.80;99.10;;;;;;5034108;28;20772;-64
2021/10/11 11:05:02;;;;;;;7.50;4.00;;;13.70;99.50;;;;;;5034232;28;20419;-67
2021/10/11 11:07:37;;;;;;;4.77;3.80;;;13.70;99.90;;;;;;5023489;28;20252;-65
2021/10/11 11:10:12;;;;;;;4.47;3.03;;;13.60;99.90;;;;;;5013864;28;20980;-64
2021/10/11 11:12:39;;;;;;;3.87;3.63;;;13.60;99.90;;;;;;5013712;28;20399;-64
2021/10/11 11:15:09;;;;;;;6.90;4.40;;;13.60;99.90;;;;;;5014209;28;20412;-64
2021/10/11 11:17:37;;;;;;;6.13;5.60;;;13.50;99.90;;;;;;5014172;28;20448;-64
2021/10/11 11:20:15;;;;;;;5.40;3.20;;;13.50;99.90;;;;;;5013637;28;20519;-64
2021/10/11 11:22:42;;;;;;;3.70;2.60;;;13.40;99.90;;;;;;5014129;28;20405;-64
2021/10/11 11:25:08;;;;;;;4.40;3.50;;;13.40;99.90;;;;;;5014075;28;20405;-64
2021/10/11 11:27:36;;;;;;;4.30;2.57;;;13.50;99.90;;;;;;5013996;28;20461;-64
2021/10/11 11:30:10;;;;;;;2.57;2.37;;;13.60;99.90;;;;;;5013561;28;20432;-64
2021/10/11 11:32:45;;;;;;;7.80;2.53;;;13.70;99.90;;;;;;5013929;28;20411;-64
2021/10/11 11:35:38;;;;;;;7.43;3.67;;;13.70;99.90;;;;;;5013812;28;20408;-67
2021/10/11 11:38:10;;;;;;;4.63;2.73;;;13.70;99.80;;;;;;5012570;28;20420;-66
2021/10/11 11:40:38;;;;;;;3.30;3.10;;;13.80;99.50;;;;;;5013527;28;20440;-65
2021/10/11 11:43:06;;;;;;;5.67;2.73;;;13.80;98.80;;;;;;5013734;28;20471;-65
2021/10/11 11:45:55;;;;;;;5.10;3.00;;;13.80;98.80;;;;;;5013556;28;20396;-66
2021/10/11 11:48:32;;;;;;;4.60;3.03;;;13.80;99.00;;;;;;5010566;28;20420;-65
2021/10/11 11:51:28;;;;;;;6.70;3.70;;;13.70;98.50;;;;;;5013370;28;20423;-66
2021/10/11 11:53:54;;;;;;;3.80;2.93;;;13.60;98.40;;;;;;5010015;28;20775;-65
2021/10/11 11:56:23;;;;;;;8.43;2.90;;;13.60;98.50;;;;;;5013396;28;20454;-66
2021/10/11 11:58:50;;;;;;;6.37;3.60;;;13.70;99.20;;;;;;5012945;28;20416;-65
2021/10/11 12:01:27;;;;;;;4.30;3.90;;;13.80;99.50;;;;;;5013333;28;20483;-64
2021/10/11 12:04:02;;;;;;;4.13;3.83;;;13.80;99.90;;;;;;5013382;28;20956;-63
2021/10/11 12:06:33;;;;;;;11.17;3.80;;;13.80;99.90;;;;;;5013226;28;20408;-64
2021/10/11 12:08:59;;;;;;;4.30;2.80;;;13.90;99.90;;;;;;5012834;28;20562;-64
2021/10/11 12:11:25;;;;;;;3.97;3.57;;;13.90;99.90;;;;;;5013175;28;20412;-64
2021/10/11 12:13:59;;;;;;;3.57;3.23;;;14.10;99.90;;;;;;5013175;28;20885;-65
2021/10/11 12:16:26;;;;;;;5.53;2.60;;;14.20;99.90;;;;;;5012994;28;20270;-64
2021/10/11 12:18:59;;;;;;;13.00;5.77;;;14.00;98.50;;;;;;5012409;28;20523;-64
2021/10/11 12:21:29;;;;;;;8.37;3.43;;;14.00;98.90;;;;;;5013070;28;20407;-64
2021/10/11 12:24:04;;;;;;;9.67;3.73;;;14.10;99.30;;;;;;5012123;28;20804;-63
2021/10/11 12:26:31;;;;;;;4.63;2.30;;;14.10;99.20;;;;;;5012942;28;20412;-65
2021/10/11 12:29:02;;;;;;;5.90;3.00;;;14.00;96.90;;;;;;5012604;28;20419;-65
2021/10/11 12:31:34;;;;;;;2.87;2.40;;;14.00;97.70;;;;;;5012769;28;20470;-64
2021/10/11 12:34:11;;;;;;;6.73;3.07;;;14.00;97.10;;;;;;5012740;28;20418;-67
2021/10/11 12:36:54;;;;;;;3.33;2.93;;;14.10;97.90;;;;;;5012738;28;20543;-66
2021/10/11 12:39:28;;;;;;;3.03;2.70;;;14.10;98.00;;;;;;5012196;28;20448;-64
2021/10/11 12:41:53;;;;;;;6.60;2.70;;;14.30;99.20;;;;;;5011377;28;20901;-66